Time;durP1;ratioP1;P1;durP2;ratioP2;P2;SDS_P1;SDS_P2;PMS_P1;PMS_P2;Temp;Humidity;BMP_temperature;BMP_pressure;BME280_temperature;BME280_humidity;BME280_pressure;Samples;Min_cycle;Max_cycle;Signal;HPM_P1;HPM_P2
2023/07/08 00:00:50;;;;;;;8.27;3.30;;;15.70;70.00;;;;;;5029306;28;20084;-64
2023/07/08 00:03:17;;;;;;;5.85;3.67;;;15.70;70.10;;;;;;5040849;28;20030;-64
2023/07/08 00:05:43;;;;;;;4.90;3.25;;;15.70;70.40;;;;;;5041325;28;20060;-64
2023/07/08 00:08:13;;;;;;;7.07;3.72;;;15.70;70.50;;;;;;5040375;28;20044;-64
2023/07/08 00:10:38;;;;;;;6.13;4.23;;;15.60;71.50;;;;;;5036381;28;20037;-65
2023/07/08 00:13:04;;;;;;;5.85;3.40;;;15.50;70.80;;;;;;5031802;28;20052;-65
2023/07/08 00:15:34;;;;;;;8.40;3.55;;;15.50;71.00;;;;;;5023854;28;20041;-64
2023/07/08 00:18:01;;;;;;;9.30;3.60;;;15.50;71.20;;;;;;5036795;28;20163;-64
2023/07/08 00:20:39;;;;;;;7.70;3.47;;;15.50;71.20;;;;;;5037934;28;20072;-64
2023/07/08 00:23:05;;;;;;;6.55;3.75;;;15.40;71.60;;;;;;5042076;28;20455;-64
2023/07/08 00:25:32;;;;;;;7.72;3.85;;;15.40;71.50;;;;;;5037468;28;20073;-64
2023/07/08 00:27:58;;;;;;;7.38;3.80;;;15.40;71.50;;;;;;5042560;28;20045;-64
2023/07/08 00:30:29;;;;;;;7.38;3.70;;;15.30;71.60;;;;;;5043725;28;20045;-65
2023/07/08 00:32:56;;;;;;;5.38;3.85;;;15.40;71.90;;;;;;5040434;28;20143;-64
2023/07/08 00:35:34;;;;;;;6.03;3.75;;;15.40;71.90;;;;;;5041490;28;20072;-64
2023/07/08 00:38:03;;;;;;;6.70;3.47;;;15.40;72.50;;;;;;5040644;28;20041;-64
2023/07/08 00:40:31;;;;;;;6.38;3.55;;;15.30;71.90;;;;;;5038294;28;20075;-65
2023/07/08 00:43:00;;;;;;;6.88;4.15;;;15.30;72.00;;;;;;5045986;28;20481;-64
2023/07/08 00:45:35;;;;;;;5.82;4.00;;;15.30;72.20;;;;;;5045890;28;20033;-65
2023/07/08 00:48:10;;;;;;;5.78;3.30;;;15.20;72.50;;;;;;5039010;28;20056;-64
2023/07/08 00:50:36;;;;;;;7.97;3.80;;;15.20;72.80;;;;;;5040241;28;20445;-64
2023/07/08 00:53:22;;;;;;;8.80;3.97;;;15.10;72.80;;;;;;5034771;28;20060;-65
2023/07/08 00:55:48;;;;;;;6.57;3.92;;;15.10;73.90;;;;;;5041712;28;20760;-65
2023/07/08 00:58:16;;;;;;;7.07;3.92;;;15.00;73.10;;;;;;5031506;28;20037;-65
2023/07/08 01:00:41;;;;;;;5.60;3.33;;;15.00;73.20;;;;;;5042396;28;20087;-65
2023/07/08 01:03:07;;;;;;;8.75;4.10;;;15.00;73.30;;;;;;5035804;28;20044;-66
2023/07/08 01:05:34;;;;;;;7.40;4.07;;;15.00;73.40;;;;;;5047828;28;20104;-65
2023/07/08 01:08:03;;;;;;;8.48;4.40;;;14.90;73.50;;;;;;5038308;28;20059;-64
2023/07/08 01:10:36;;;;;;;8.00;4.03;;;15.00;73.70;;;;;;5040159;28;20135;-64
2023/07/08 01:13:07;;;;;;;7.38;4.00;;;15.10;74.00;;;;;;5036142;28;20112;-64
2023/07/08 01:15:41;;;;;;;8.63;3.90;;;15.10;73.60;;;;;;5033405;28;20425;-64
2023/07/08 01:18:09;;;;;;;7.90;4.55;;;15.10;73.70;;;;;;5045155;28;20036;-65
2023/07/08 01:20:35;;;;;;;8.38;4.15;;;15.10;73.50;;;;;;5035567;28;20099;-65
2023/07/08 01:23:01;;;;;;;7.18;4.13;;;15.10;73.70;;;;;;5036568;28;20041;-64
2023/07/08 01:25:27;;;;;;;6.80;3.97;;;15.10;73.70;;;;;;5031347;28;20036;-64
2023/07/08 01:27:55;;;;;;;6.45;4.25;;;15.00;73.70;;;;;;5034150;28;20045;-64
2023/07/08 01:30:21;;;;;;;8.98;4.50;;;15.00;74.00;;;;;;5035332;28;20053;-64
2023/07/08 01:32:54;;;;;;;6.40;3.63;;;15.00;74.20;;;;;;5040453;28;20044;-65
2023/07/08 01:35:21;;;;;;;6.35;4.07;;;15.00;74.50;;;;;;5038297;28;20048;-64
2023/07/08 01:37:52;;;;;;;6.07;4.20;;;15.00;74.20;;;;;;5033994;28;20051;-65
2023/07/08 01:40:36;;;;;;;6.53;4.00;;;15.00;74.50;;;;;;5034987;28;20036;-66
2023/07/08 01:43:03;;;;;;;5.78;4.00;;;15.00;74.80;;;;;;5040919;28;20453;-65
2023/07/08 01:45:34;;;;;;;5.28;3.65;;;14.90;74.30;;;;;;5041383;28;20420;-65
2023/07/08 01:48:03;;;;;;;8.98;4.32;;;14.90;74.60;;;;;;5031096;28;20033;-64
2023/07/08 01:50:30;;;;;;;6.10;4.05;;;14.90;74.60;;;;;;5042887;28;20136;-65
2023/07/08 01:52:58;;;;;;;5.55;3.95;;;14.80;74.60;;;;;;5023904;28;20032;-65
2023/07/08 01:55:25;;;;;;;7.55;4.82;;;14.80;74.80;;;;;;5035438;28;20420;-64
2023/07/08 01:57:55;;;;;;;6.20;3.80;;;14.80;74.90;;;;;;5036295;28;20064;-65
2023/07/08 02:00:21;;;;;;;9.30;4.25;;;14.80;75.10;;;;;;5028724;28;20691;-65
2023/07/08 02:02:48;;;;;;;6.03;4.40;;;14.80;75.20;;;;;;5034453;28;20029;-65
2023/07/08 02:05:13;;;;;;;6.20;4.25;;;14.80;75.20;;;;;;5041916;28;20037;-65
2023/07/08 02:07:39;;;;;;;6.60;4.43;;;14.80;75.40;;;;;;5033807;28;20033;-65
2023/07/08 02:10:05;;;;;;;7.50;4.75;;;14.70;75.50;;;;;;5036903;28;20072;-64
2023/07/08 02:12:31;;;;;;;7.72;4.30;;;14.70;75.70;;;;;;5030789;28;20121;-64
2023/07/08 02:14:59;;;;;;;5.95;3.90;;;14.70;75.90;;;;;;5037563;28;20044;-65
2023/07/08 02:17:25;;;;;;;6.47;4.00;;;14.60;76.10;;;;;;5038067;28;20064;-64
2023/07/08 02:19:50;;;;;;;7.18;4.57;;;14.60;76.20;;;;;;5029139;28;20485;-64
2023/07/08 02:22:16;;;;;;;8.23;4.80;;;14.60;76.20;;;;;;5043196;28;20476;-65
2023/07/08 02:24:41;;;;;;;8.50;4.90;;;14.60;76.30;;;;;;5020096;28;20042;-65
2023/07/08 02:27:07;;;;;;;7.03;4.93;;;14.60;76.30;;;;;;5037652;28;20061;-64
2023/07/08 02:29:33;;;;;;;9.32;5.32;;;14.60;76.30;;;;;;5044213;28;20056;-65
2023/07/08 02:31:58;;;;;;;8.00;4.55;;;14.60;76.30;;;;;;5022139;28;20037;-64
2023/07/08 02:34:24;;;;;;;7.65;4.85;;;14.60;76.60;;;;;;5028662;28;20041;-65
2023/07/08 02:36:49;;;;;;;9.52;4.53;;;14.60;76.90;;;;;;5048328;28;20482;-65
2023/07/08 02:39:15;;;;;;;11.02;5.00;;;14.50;76.90;;;;;;5043741;28;20392;-65
2023/07/08 02:41:40;;;;;;;8.27;5.03;;;14.60;77.00;;;;;;5028841;28;20472;-64
2023/07/08 02:44:06;;;;;;;8.63;4.78;;;14.60;77.00;;;;;;5032999;28;20504;-66
2023/07/08 02:46:31;;;;;;;9.48;5.80;;;14.60;77.10;;;;;;5037114;28;20776;-65
2023/07/08 02:48:57;;;;;;;8.63;5.10;;;14.60;76.90;;;;;;5039133;28;20499;-64
2023/07/08 02:51:23;;;;;;;9.27;5.43;;;14.60;77.00;;;;;;5033414;28;20042;-64
2023/07/08 02:53:50;;;;;;;8.55;5.53;;;14.60;77.00;;;;;;5033821;28;20033;-64
2023/07/08 02:56:15;;;;;;;10.07;5.40;;;14.60;77.10;;;;;;5044556;28;20091;-65
2023/07/08 02:58:41;;;;;;;8.70;4.68;;;14.60;77.20;;;;;;5031171;28;20362;-65
2023/07/08 03:01:08;;;;;;;7.60;4.88;;;14.50;77.10;;;;;;5034390;28;20139;-65
2023/07/08 03:03:34;;;;;;;8.25;5.18;;;14.50;77.20;;;;;;5028075;28;20120;-65
2023/07/08 03:06:02;;;;;;;7.57;5.13;;;14.50;77.30;;;;;;5035499;28;20066;-65
2023/07/08 03:08:29;;;;;;;7.78;5.38;;;14.30;77.40;;;;;;5041614;28;20041;-65
2023/07/08 03:11:03;;;;;;;12.10;5.93;;;14.30;77.60;;;;;;5034259;28;20115;-65
2023/07/08 03:13:30;;;;;;;7.72;5.43;;;14.30;78.00;;;;;;5041674;28;20037;-65
2023/07/08 03:15:59;;;;;;;11.00;5.05;;;14.30;77.90;;;;;;5027777;28;20056;-65
2023/07/08 03:18:26;;;;;;;8.00;5.38;;;14.30;78.00;;;;;;5030119;28;20074;-65
2023/07/08 03:20:53;;;;;;;8.90;5.90;;;14.30;78.20;;;;;;5034969;28;20052;-65
2023/07/08 03:23:18;;;;;;;10.98;5.43;;;14.20;78.30;;;;;;5036237;28;21657;-64
2023/07/08 03:25:44;;;;;;;8.60;5.65;;;14.20;78.60;;;;;;5037007;28;20052;-65
2023/07/08 03:28:14;;;;;;;8.00;5.53;;;14.10;78.70;;;;;;5037843;28;20080;-64
2023/07/08 03:30:44;;;;;;;9.48;5.30;;;14.10;78.80;;;;;;5035499;28;20049;-65
2023/07/08 03:33:10;;;;;;;8.23;5.60;;;14.10;79.10;;;;;;5043377;28;20416;-65
2023/07/08 03:35:36;;;;;;;9.65;5.75;;;14.10;79.10;;;;;;5041355;28;20127;-64
2023/07/08 03:38:02;;;;;;;10.07;5.50;;;14.00;79.40;;;;;;5047187;28;20045;-65
2023/07/08 03:40:29;;;;;;;8.70;5.95;;;14.10;79.40;;;;;;5039600;28;20040;-64
2023/07/08 03:42:54;;;;;;;10.88;5.90;;;14.00;80.20;;;;;;5031101;28;20094;-64
2023/07/08 03:45:20;;;;;;;9.57;6.35;;;14.00;79.60;;;;;;5040092;28;20567;-65
2023/07/08 03:47:45;;;;;;;10.85;6.05;;;14.00;79.90;;;;;;5037391;28;20155;-64
2023/07/08 03:50:20;;;;;;;10.07;7.22;;;14.00;79.80;;;;;;5043922;28;20045;-65
2023/07/08 03:52:47;;;;;;;10.48;6.25;;;14.10;80.40;;;;;;5042534;28;20042;-64
2023/07/08 03:55:13;;;;;;;11.13;6.50;;;14.10;79.90;;;;;;5033740;28;20041;-64
2023/07/08 03:57:39;;;;;;;11.13;6.90;;;14.10;79.80;;;;;;5026089;28;20399;-64
2023/07/08 04:00:09;;;;;;;8.60;6.00;;;14.10;79.80;;;;;;5037872;28;20037;-64
2023/07/08 04:02:41;;;;;;;8.80;5.78;;;14.10;80.00;;;;;;5035100;28;20421;-65
2023/07/08 04:05:13;;;;;;;10.20;6.38;;;14.10;80.10;;;;;;5036872;28;20037;-64
2023/07/08 04:07:38;;;;;;;8.98;5.53;;;14.10;80.30;;;;;;5036550;28;20040;-65
2023/07/08 04:10:04;;;;;;;10.63;6.47;;;14.10;80.30;;;;;;5033714;28;20037;-65
2023/07/08 04:12:29;;;;;;;9.02;6.22;;;14.20;80.30;;;;;;5040761;28;20041;-65
2023/07/08 04:14:55;;;;;;;8.40;5.70;;;14.20;80.20;;;;;;5037590;28;20051;-65
2023/07/08 04:17:23;;;;;;;9.82;5.55;;;14.20;80.40;;;;;;5042022;28;20045;-65
2023/07/08 04:19:49;;;;;;;10.95;5.93;;;14.30;80.30;;;;;;5035271;28;20045;-64
2023/07/08 04:22:14;;;;;;;13.57;7.65;;;14.30;80.40;;;;;;5041484;28;20040;-65
2023/07/08 04:24:40;;;;;;;9.20;5.85;;;14.40;80.60;;;;;;5021134;28;20037;-65
2023/07/08 04:27:07;;;;;;;9.52;5.93;;;14.40;80.40;;;;;;5033269;28;20055;-65
2023/07/08 04:29:34;;;;;;;9.98;5.97;;;14.50;80.40;;;;;;5045548;28;20425;-65
2023/07/08 04:32:00;;;;;;;8.15;5.32;;;14.50;80.40;;;;;;5033050;28;20056;-64
2023/07/08 04:34:25;;;;;;;9.32;6.82;;;14.60;80.60;;;;;;5044599;28;20041;-64
2023/07/08 04:36:52;;;;;;;12.25;6.47;;;14.60;80.40;;;;;;5034951;28;20033;-64
2023/07/08 04:39:18;;;;;;;9.50;5.97;;;14.70;80.40;;;;;;5043440;28;20037;-63
2023/07/08 04:41:43;;;;;;;9.75;6.53;;;14.80;80.40;;;;;;5039056;28;21989;-65
2023/07/08 04:44:10;;;;;;;10.38;6.45;;;14.90;80.30;;;;;;5030177;28;20056;-65
2023/07/08 04:46:46;;;;;;;9.32;6.00;;;14.90;80.30;;;;;;5039576;28;20095;-65
2023/07/08 04:49:13;;;;;;;9.65;6.30;;;15.10;80.20;;;;;;5031423;28;20141;-65
2023/07/08 04:51:40;;;;;;;8.68;5.97;;;15.10;80.00;;;;;;5040576;28;20123;-65
2023/07/08 04:54:06;;;;;;;9.48;6.30;;;15.20;79.80;;;;;;5041467;28;20423;-65
2023/07/08 04:56:47;;;;;;;12.93;6.25;;;15.30;79.90;;;;;;5040562;28;20126;-65
2023/07/08 04:59:14;;;;;;;;;;;15.50;79.80;;;;;;5039213;28;20444;-65
2023/07/08 05:01:40;;;;;;;10.10;6.22;;;15.60;80.20;;;;;;5037924;28;19921;-65
2023/07/08 05:04:07;;;;;;;8.13;6.50;;;15.70;78.60;;;;;;5039212;28;20073;-65
2023/07/08 05:06:35;;;;;;;8.23;5.90;;;15.90;78.60;;;;;;5037591;28;20079;-65
2023/07/08 05:09:02;;;;;;;7.50;5.78;;;16.00;78.60;;;;;;5036785;28;20053;-65
2023/07/08 05:11:28;;;;;;;8.85;5.72;;;16.10;78.50;;;;;;5043134;28;20369;-66
2023/07/08 05:13:54;;;;;;;7.53;5.57;;;16.30;78.60;;;;;;5037185;28;20102;-65
2023/07/08 05:16:20;;;;;;;8.52;5.88;;;16.40;78.50;;;;;;5037341;28;20034;-65
2023/07/08 05:18:46;;;;;;;8.55;6.45;;;16.60;78.50;;;;;;5040274;28;20037;-65
2023/07/08 05:21:11;;;;;;;6.38;5.22;;;16.80;78.40;;;;;;5037016;28;20112;-66
2023/07/08 05:23:38;;;;;;;10.30;6.03;;;17.00;78.00;;;;;;5031497;28;20329;-64
2023/07/08 05:26:05;;;;;;;9.75;5.55;;;17.20;77.70;;;;;;5041924;28;20068;-66
2023/07/08 05:28:31;;;;;;;8.07;5.82;;;17.30;77.20;;;;;;5039027;28;20045;-66
2023/07/08 05:30:57;;;;;;;8.25;5.68;;;17.50;76.60;;;;;;5032460;28;20074;-66
2023/07/08 05:33:24;;;;;;;7.80;5.50;;;17.60;76.00;;;;;;5042015;28;20046;-66
2023/07/08 05:35:50;;;;;;;8.27;5.38;;;17.80;75.60;;;;;;5040900;28;20048;-66
2023/07/08 05:38:16;;;;;;;7.78;5.72;;;17.90;75.30;;;;;;5037883;28;20049;-65
2023/07/08 05:40:41;;;;;;;9.10;5.05;;;18.10;74.50;;;;;;5044835;28;20500;-66
2023/07/08 05:43:07;;;;;;;6.53;5.22;;;18.20;74.00;;;;;;5051138;28;20036;-66
2023/07/08 05:45:33;;;;;;;5.78;4.93;;;18.40;73.50;;;;;;5030513;28;20061;-66
2023/07/08 05:47:59;;;;;;;7.43;4.65;;;18.50;72.90;;;;;;5036151;28;20446;-66
2023/07/08 05:50:24;;;;;;;7.65;4.40;;;18.70;72.20;;;;;;5046299;28;20089;-65
2023/07/08 05:52:50;;;;;;;6.82;4.65;;;18.90;71.80;;;;;;5029369;28;20438;-66
2023/07/08 05:55:16;;;;;;;7.75;5.15;;;19.00;71.30;;;;;;5027406;28;20042;-66
2023/07/08 05:57:41;;;;;;;10.13;5.00;;;19.10;70.90;;;;;;5033122;28;20040;-66
2023/07/08 06:00:08;;;;;;;6.07;4.60;;;19.20;70.50;;;;;;5032518;28;20131;-66
2023/07/08 06:02:35;;;;;;;4.88;3.90;;;19.40;70.30;;;;;;5034661;28;20472;-67
2023/07/08 06:05:00;;;;;;;7.13;4.70;;;19.50;69.70;;;;;;5042323;28;20121;-65
2023/07/08 06:07:26;;;;;;;7.85;5.30;;;19.70;69.10;;;;;;5040689;28;20126;-67
2023/07/08 06:09:51;;;;;;;5.72;4.18;;;19.80;68.50;;;;;;5036853;28;20057;-66
2023/07/08 06:12:17;;;;;;;6.13;4.45;;;19.90;67.60;;;;;;5040209;28;20099;-66
2023/07/08 06:14:42;;;;;;;5.90;4.30;;;20.10;66.80;;;;;;5039954;28;20814;-67
2023/07/08 06:17:08;;;;;;;6.38;4.38;;;20.10;65.80;;;;;;5028488;28;20033;-67
2023/07/08 06:19:34;;;;;;;6.32;4.22;;;20.30;65.40;;;;;;5042435;28;20031;-66
2023/07/08 06:21:59;;;;;;;7.32;4.72;;;20.40;65.00;;;;;;5047043;28;20033;-66
2023/07/08 06:24:25;;;;;;;5.47;3.90;;;20.60;64.40;;;;;;5036769;28;20079;-65
2023/07/08 06:26:51;;;;;;;9.98;4.13;;;20.70;63.80;;;;;;5038750;28;20064;-67
2023/07/08 06:29:16;;;;;;;5.22;3.60;;;20.90;63.50;;;;;;5037464;28;20041;-67
2023/07/08 06:31:42;;;;;;;7.03;3.78;;;21.10;63.00;;;;;;5037451;28;20045;-66
2023/07/08 06:34:07;;;;;;;7.30;3.70;;;21.20;62.40;;;;;;5034214;28;20464;-67
2023/07/08 06:36:33;;;;;;;5.55;4.15;;;21.50;62.00;;;;;;5034460;28;20084;-66
2023/07/08 06:38:59;;;;;;;6.03;3.90;;;21.50;61.20;;;;;;5036974;28;20382;-67
2023/07/08 06:41:24;;;;;;;6.40;3.50;;;21.70;60.40;;;;;;5030940;28;20193;-67
2023/07/08 06:43:50;;;;;;;4.57;3.70;;;21.80;59.90;;;;;;5028209;28;20072;-67
2023/07/08 06:46:16;;;;;;;4.45;3.60;;;21.90;59.30;;;;;;5028319;28;20037;-68
2023/07/08 06:48:42;;;;;;;5.47;3.72;;;22.00;59.00;;;;;;5030800;28;20057;-66
2023/07/08 06:51:08;;;;;;;4.90;3.78;;;22.20;58.50;;;;;;5036603;28;20125;-66
2023/07/08 06:53:33;;;;;;;4.70;3.67;;;22.30;58.10;;;;;;5040557;28;20112;-67
2023/07/08 06:55:59;;;;;;;6.05;3.42;;;22.50;57.90;;;;;;5036476;28;20100;-66
2023/07/08 06:58:25;;;;;;;6.22;3.70;;;22.60;57.40;;;;;;5029866;28;20037;-66
2023/07/08 07:00:50;;;;;;;3.40;3.10;;;22.80;57.00;;;;;;5013661;28;20476;-68
2023/07/08 07:03:16;;;;;;;5.55;3.67;;;23.00;56.60;;;;;;5036229;28;20048;-67
2023/07/08 07:05:43;;;;;;;4.72;3.60;;;23.10;55.60;;;;;;5036478;28;20045;-66
2023/07/08 07:08:08;;;;;;;5.57;4.28;;;23.10;55.10;;;;;;5010025;28;20041;-67
2023/07/08 07:10:34;;;;;;;7.30;3.78;;;23.30;55.00;;;;;;5033808;28;20041;-68
2023/07/08 07:13:00;;;;;;;4.88;3.17;;;23.40;54.50;;;;;;5017176;28;20044;-66
2023/07/08 07:15:25;;;;;;;5.18;3.63;;;23.50;54.40;;;;;;5036759;28;20116;-68
2023/07/08 07:17:51;;;;;;;5.25;3.40;;;23.60;54.10;;;;;;5034145;28;20037;-66
2023/07/08 07:20:17;;;;;;;4.43;3.65;;;23.90;53.60;;;;;;5038716;28;20116;-67
2023/07/08 07:22:43;;;;;;;5.63;3.67;;;23.90;53.10;;;;;;5035290;28;20055;-65
2023/07/08 07:25:08;;;;;;;4.60;3.75;;;24.00;52.40;;;;;;5041033;28;20042;-67
2023/07/08 07:27:34;;;;;;;5.15;3.40;;;24.10;52.20;;;;;;5036242;28;20045;-67
2023/07/08 07:30:00;;;;;;;4.90;3.42;;;24.30;51.60;;;;;;5046175;28;20465;-67
2023/07/08 07:32:26;;;;;;;4.68;3.75;;;24.50;51.30;;;;;;5039234;28;20048;-69
2023/07/08 07:34:52;;;;;;;4.35;3.28;;;24.70;50.60;;;;;;5031830;28;20041;-67
2023/07/08 07:37:20;;;;;;;5.30;3.42;;;24.80;50.10;;;;;;5032433;28;20733;-67
2023/07/08 07:39:46;;;;;;;5.68;3.85;;;24.90;49.80;;;;;;5028117;28;20481;-68
2023/07/08 07:42:12;;;;;;;5.72;3.33;;;24.90;49.50;;;;;;5027034;28;20125;-67
2023/07/08 07:44:40;;;;;;;5.10;3.13;;;25.10;48.70;;;;;;5032405;28;20046;-68
2023/07/08 07:47:07;;;;;;;5.47;3.45;;;25.30;48.80;;;;;;5013578;28;20128;-67
2023/07/08 07:49:33;;;;;;;3.88;3.20;;;25.50;49.10;;;;;;5035094;28;20374;-66
2023/07/08 07:51:59;;;;;;;4.88;3.50;;;25.70;49.30;;;;;;5043044;28;20045;-66
2023/07/08 07:54:24;;;;;;;5.68;3.08;;;25.80;48.50;;;;;;5029706;28;20162;-68
2023/07/08 07:56:51;;;;;;;4.28;3.17;;;26.10;47.90;;;;;;5026529;28;20450;-68
2023/07/08 07:59:16;;;;;;;5.38;3.13;;;26.50;47.50;;;;;;5048360;28;20047;-66
2023/07/08 08:01:42;;;;;;;8.52;2.97;;;26.60;46.80;;;;;;5038494;28;20033;-64
2023/07/08 08:04:09;;;;;;;6.50;3.28;;;26.70;46.30;;;;;;5028859;28;20444;-64
2023/07/08 08:06:35;;;;;;;3.50;3.20;;;27.00;46.20;;;;;;5027173;28;20040;-64
2023/07/08 08:09:00;;;;;;;3.75;2.90;;;27.20;45.50;;;;;;5031912;28;20500;-65
2023/07/08 08:11:26;;;;;;;3.38;2.92;;;27.20;45.10;;;;;;5024451;28;20086;-64
2023/07/08 08:13:53;;;;;;;4.45;3.50;;;27.30;44.70;;;;;;5044473;28;20044;-66
2023/07/08 08:16:19;;;;;;;3.33;2.90;;;27.30;44.50;;;;;;5020913;28;20041;-63
2023/07/08 08:18:45;;;;;;;5.07;3.00;;;27.50;44.30;;;;;;5040711;28;20126;-64
2023/07/08 08:21:10;;;;;;;4.03;3.10;;;27.70;43.70;;;;;;5040378;28;20048;-67
2023/07/08 08:23:36;;;;;;;5.03;3.25;;;27.70;43.00;;;;;;5029088;28;20123;-63
2023/07/08 08:26:02;;;;;;;4.63;3.15;;;27.60;42.80;;;;;;5030521;28;20112;-64
2023/07/08 08:28:27;;;;;;;6.68;3.22;;;28.00;42.50;;;;;;5040292;28;20036;-64
2023/07/08 08:30:53;;;;;;;4.38;3.03;;;28.20;42.20;;;;;;5040316;28;20477;-65
2023/07/08 08:33:19;;;;;;;4.95;3.20;;;28.20;41.60;;;;;;5029896;28;20041;-65
2023/07/08 08:35:45;;;;;;;6.22;3.63;;;28.30;41.50;;;;;;5034981;28;20040;-64
2023/07/08 08:38:11;;;;;;;5.43;3.40;;;28.50;41.00;;;;;;5041446;28;20044;-66
2023/07/08 08:40:39;;;;;;;4.20;3.10;;;28.80;40.80;;;;;;5021194;28;20041;-64
2023/07/08 08:43:10;;;;;;;3.30;2.85;;;28.90;40.60;;;;;;5042704;28;20042;-65
2023/07/08 08:45:51;;;;;;;4.63;3.22;;;29.30;40.50;;;;;;5027333;28;20430;-65
2023/07/08 08:48:19;;;;;;;4.53;3.45;;;29.60;40.10;;;;;;5042454;28;20330;-64
2023/07/08 08:50:50;;;;;;;7.18;3.50;;;30.00;38.90;;;;;;5036280;28;20135;-64
2023/07/08 08:53:18;;;;;;;5.28;3.45;;;30.00;38.30;;;;;;5045484;28;20094;-63
2023/07/08 08:56:05;;;;;;;4.25;3.28;;;30.10;38.20;;;;;;5036824;28;20076;-65
2023/07/08 08:58:47;;;;;;;4.50;2.85;;;30.30;37.70;;;;;;5047269;28;20072;-63
2023/07/08 09:01:15;;;;;;;5.45;3.47;;;30.80;37.10;;;;;;5038482;28;20337;-66
2023/07/08 09:04:03;;;;;;;5.10;3.30;;;30.80;36.30;;;;;;5031258;28;20481;-66
2023/07/08 09:06:32;;;;;;;4.00;3.05;;;31.00;35.60;;;;;;5043170;28;20098;-65
2023/07/08 09:09:03;;;;;;;5.03;3.20;;;31.00;35.50;;;;;;5049177;28;20047;-64
2023/07/08 09:11:58;;;;;;;5.93;3.35;;;31.20;36.20;;;;;;5044534;28;20045;-65
2023/07/08 09:14:32;;;;;;;3.92;2.80;;;31.50;34.70;;;;;;5046185;28;20538;-65
2023/07/08 09:17:22;;;;;;;3.92;3.10;;;31.60;34.00;;;;;;5030152;28;20049;-65
2023/07/08 09:20:06;;;;;;;;;;;31.70;33.70;;;;;;5018777;28;20397;-65
2023/07/08 09:22:43;;;;;;;8.85;3.10;;;31.90;33.80;;;;;;5034855;28;20478;-64
2023/07/08 09:25:12;;;;;;;4.63;3.45;;;32.00;32.20;;;;;;5037708;28;20114;-64
2023/07/08 09:27:37;;;;;;;6.13;3.50;;;31.90;33.70;;;;;;5044560;28;20037;-64
2023/07/08 09:30:04;;;;;;;4.50;3.00;;;31.90;33.20;;;;;;5040261;28;20071;-66
2023/07/08 09:32:29;;;;;;;5.50;3.53;;;32.40;33.10;;;;;;5041558;28;20041;-63
2023/07/08 09:35:06;;;;;;;3.45;3.15;;;32.40;33.10;;;;;;5037897;28;20084;-65
2023/07/08 09:37:35;;;;;;;4.85;3.17;;;32.90;32.20;;;;;;5026040;28;20041;-65
2023/07/08 09:40:14;;;;;;;3.97;3.00;;;33.30;32.70;;;;;;5020834;28;20128;-64
2023/07/08 09:42:42;;;;;;;6.32;3.10;;;33.50;32.40;;;;;;5036647;28;20044;-67
2023/07/08 09:45:14;;;;;;;3.97;3.50;;;33.70;31.10;;;;;;5040615;28;20063;-65
2023/07/08 09:47:40;;;;;;;5.30;3.65;;;34.30;31.20;;;;;;5037647;28;20041;-66
2023/07/08 09:50:35;;;;;;;6.68;3.35;;;34.50;31.00;;;;;;5038238;28;20106;-66
2023/07/08 09:53:01;;;;;;;4.93;3.30;;;34.30;30.50;;;;;;5036597;28;20048;-66
2023/07/08 09:55:28;;;;;;;4.00;3.03;;;33.90;31.00;;;;;;5036359;28;20056;-65
2023/07/08 09:57:55;;;;;;;5.18;2.92;;;33.30;31.50;;;;;;5044405;28;20047;-65
2023/07/08 10:00:34;;;;;;;3.55;3.10;;;33.10;31.90;;;;;;5036876;28;20060;-64
2023/07/08 10:03:04;;;;;;;5.45;4.00;;;33.30;31.70;;;;;;5041601;28;20132;-64
2023/07/08 10:05:35;;;;;;;4.40;3.28;;;33.70;31.00;;;;;;5048444;28;20048;-63
2023/07/08 10:08:07;;;;;;;3.83;2.75;;;34.40;30.90;;;;;;5050286;28;20037;-64
2023/07/08 10:10:36;;;;;;;4.00;3.50;;;35.00;30.30;;;;;;5041838;28;20120;-64
2023/07/08 10:13:19;;;;;;;6.13;3.78;;;35.10;29.80;;;;;;5038995;28;20044;-67
2023/07/08 10:15:51;;;;;;;5.53;3.40;;;35.60;29.40;;;;;;5019472;28;20060;-66
2023/07/08 10:18:26;;;;;;;5.03;3.25;;;35.60;29.20;;;;;;5029004;28;20036;-66
2023/07/08 10:21:21;;;;;;;4.32;3.20;;;36.10;28.70;;;;;;5041219;28;20037;-66
2023/07/08 10:24:02;;;;;;;3.67;3.22;;;36.00;28.90;;;;;;5037388;28;20685;-65
2023/07/08 10:26:30;;;;;;;4.72;3.22;;;35.90;28.50;;;;;;5032948;28;20083;-65
2023/07/08 10:29:11;;;;;;;4.82;3.05;;;36.20;28.60;;;;;;5049323;28;20071;-65
2023/07/08 10:32:08;;;;;;;4.07;3.15;;;36.80;28.30;;;;;;5035632;28;20107;-66
2023/07/08 10:34:53;;;;;;;3.78;3.10;;;36.60;27.60;;;;;;5042186;28;20504;-65
2023/07/08 10:37:27;;;;;;;5.60;3.17;;;36.20;27.80;;;;;;5046056;28;20041;-65
2023/07/08 10:39:55;;;;;;;5.53;3.15;;;37.00;27.80;;;;;;5036071;28;20044;-64
2023/07/08 10:42:33;;;;;;;4.15;3.30;;;37.00;27.20;;;;;;5038076;28;20042;-63
2023/07/08 10:45:08;;;;;;;5.13;3.13;;;37.50;26.30;;;;;;5026813;28;20116;-66
2023/07/08 10:47:54;;;;;;;4.97;3.15;;;37.80;27.10;;;;;;5039123;28;20048;-65
2023/07/08 10:50:46;;;;;;;4.15;3.22;;;38.20;26.70;;;;;;5033620;28;20049;-63
2023/07/08 10:53:30;;;;;;;4.82;2.92;;;38.20;25.40;;;;;;5014336;28;20049;-65
2023/07/08 10:56:01;;;;;;;3.88;3.47;;;38.00;26.50;;;;;;5028547;28;20045;-67
2023/07/08 10:58:44;;;;;;;3.67;3.17;;;37.30;26.40;;;;;;5044665;28;20126;-65
2023/07/08 11:01:16;;;;;;;3.58;3.28;;;36.30;26.80;;;;;;5039823;28;20033;-68
2023/07/08 11:04:02;;;;;;;3.72;3.20;;;35.50;27.70;;;;;;5028820;28;20052;-65
2023/07/08 11:06:57;;;;;;;4.28;3.58;;;34.80;29.00;;;;;;5030850;28;20060;-67
2023/07/08 11:09:51;;;;;;;4.00;3.60;;;33.90;29.40;;;;;;5043407;28;20456;-64
2023/07/08 11:12:55;;;;;;;3.63;3.28;;;33.30;28.40;;;;;;5039598;28;20048;-65
2023/07/08 11:15:31;;;;;;;4.05;3.10;;;32.80;30.60;;;;;;5033168;28;20064;-64
2023/07/08 11:18:14;;;;;;;4.22;3.63;;;32.30;29.60;;;;;;5042879;28;20366;-66
2023/07/08 11:20:51;;;;;;;6.22;3.28;;;31.80;30.40;;;;;;5049585;28;20033;-64
2023/07/08 11:23:43;;;;;;;4.40;3.08;;;31.60;31.80;;;;;;5048116;28;20063;-64
2023/07/08 11:26:14;;;;;;;3.97;3.35;;;31.40;31.60;;;;;;5028712;28;20053;-65
2023/07/08 11:28:40;;;;;;;3.25;2.95;;;31.40;32.20;;;;;;5027768;28;20107;-64
2023/07/08 11:31:06;;;;;;;3.78;3.08;;;31.50;31.70;;;;;;5026329;28;20487;-64
2023/07/08 11:33:33;;;;;;;5.35;3.30;;;31.70;31.40;;;;;;5028105;28;20099;-66
2023/07/08 11:36:00;;;;;;;3.58;2.83;;;31.70;30.70;;;;;;5039676;28;20048;-66
2023/07/08 11:38:26;;;;;;;4.15;3.50;;;31.80;30.20;;;;;;5046739;28;20116;-66
2023/07/08 11:40:54;;;;;;;4.03;3.20;;;31.80;30.20;;;;;;5031637;28;20580;-64
2023/07/08 11:43:22;;;;;;;5.03;3.45;;;31.80;29.90;;;;;;5035055;28;20075;-66
2023/07/08 11:45:50;;;;;;;6.45;3.17;;;31.90;29.70;;;;;;5022834;28;20048;-65
2023/07/08 11:48:27;;;;;;;5.00;3.35;;;31.90;29.80;;;;;;5024060;28;20046;-65
2023/07/08 11:50:54;;;;;;;7.68;3.28;;;31.90;29.30;;;;;;5037848;28;20044;-66
2023/07/08 11:53:28;;;;;;;3.85;3.28;;;31.90;29.20;;;;;;5049654;28;20187;-66
2023/07/08 11:55:58;;;;;;;3.72;3.20;;;31.90;29.20;;;;;;5050488;28;20047;-65
2023/07/08 11:58:28;;;;;;;4.32;3.20;;;32.10;29.20;;;;;;5064173;28;20029;-66
2023/07/08 12:01:10;;;;;;;5.40;3.25;;;32.10;29.20;;;;;;5046006;28;20044;-66
2023/07/08 12:03:47;;;;;;;6.20;3.45;;;32.10;29.10;;;;;;5034757;28;20037;-66
2023/07/08 12:06:43;;;;;;;3.67;3.03;;;32.00;29.20;;;;;;5051241;28;20089;-65
2023/07/08 12:09:25;;;;;;;5.50;2.97;;;31.90;29.60;;;;;;5050956;28;20124;-65
2023/07/08 12:11:59;;;;;;;4.80;3.50;;;31.90;29.70;;;;;;5041723;28;20174;-65
2023/07/08 12:14:27;;;;;;;5.88;3.15;;;32.10;29.40;;;;;;5049253;28;20049;-65
2023/07/08 12:16:52;;;;;;;4.03;2.85;;;32.20;29.20;;;;;;5049317;28;20037;-64
2023/07/08 12:19:21;;;;;;;4.10;3.17;;;32.40;28.90;;;;;;5051505;28;20330;-62
2023/07/08 12:21:48;;;;;;;4.18;3.40;;;33.00;28.20;;;;;;5051658;28;20135;-63
2023/07/08 12:24:14;;;;;;;5.10;3.65;;;33.90;27.20;;;;;;5051060;28;20041;-65
2023/07/08 12:26:41;;;;;;;4.45;3.33;;;35.10;26.30;;;;;;5033917;28;20044;-65
2023/07/08 12:29:11;;;;;;;4.47;3.50;;;36.10;25.80;;;;;;5038320;28;20049;-63
2023/07/08 12:31:37;;;;;;;4.65;3.17;;;36.70;25.00;;;;;;5034955;28;20579;-64
2023/07/08 12:34:10;;;;;;;7.43;4.22;;;36.40;25.10;;;;;;5049391;28;20365;-63
2023/07/08 12:36:36;;;;;;;4.55;3.35;;;36.30;24.60;;;;;;5047792;28;20045;-65
2023/07/08 12:39:02;;;;;;;5.50;3.50;;;36.50;24.60;;;;;;5052195;28;20044;-65
2023/07/08 12:41:31;;;;;;;4.88;3.65;;;36.70;24.50;;;;;;5048689;28;20044;-64
2023/07/08 12:43:58;;;;;;;3.53;3.05;;;38.20;24.20;;;;;;5047122;28;20056;-64
2023/07/08 12:46:25;;;;;;;4.38;3.50;;;39.50;23.60;;;;;;5040694;28;20052;-65
2023/07/08 12:48:50;;;;;;;5.13;4.25;;;40.60;23.00;;;;;;5046029;28;20138;-66
2023/07/08 12:51:21;;;;;;;6.20;3.85;;;41.20;21.80;;;;;;5043384;28;20088;-67
2023/07/08 12:53:47;;;;;;;5.15;3.90;;;41.80;20.60;;;;;;5041220;28;20042;-65
2023/07/08 12:56:14;;;;;;;7.45;4.45;;;41.80;20.30;;;;;;5048999;28;20361;-65